createdAt,value
2022-12-03T00:00:18.219Z,22.10
2022-12-03T00:03:21.031Z,21.63
2022-12-03T00:06:24.128Z,21.80
2022-12-03T00:09:26.891Z,22.33
2022-12-03T00:12:29.528Z,22.93
2022-12-03T00:15:33.612Z,24.43
2022-12-03T00:18:36.380Z,20.23
2022-12-03T00:21:39.097Z,27.30
2022-12-03T00:24:41.795Z,20.80
2022-12-03T00:27:44.604Z,28.33
2022-12-03T00:30:48.969Z,22.53
2022-12-03T00:33:52.179Z,22.33
2022-12-03T00:36:54.872Z,24.27
2022-12-03T00:39:57.982Z,26.30
2022-12-03T00:43:00.701Z,21.63
2022-12-03T00:46:04.810Z,23.10
2022-12-03T00:49:07.705Z,24.73
2022-12-03T00:52:10.396Z,25.23
2022-12-03T00:55:13.394Z,25.67
2022-12-03T00:58:16.086Z,23.60
2022-12-03T01:01:20.238Z,25.13
2022-12-03T01:04:23.112Z,24.57
2022-12-03T01:07:25.954Z,27.70
2022-12-03T01:10:28.719Z,27.27
2022-12-03T01:13:31.399Z,26.37
2022-12-03T01:16:36.164Z,24.23
2022-12-03T01:19:41.271Z,26.83
2022-12-03T01:22:47.723Z,31.37
2022-12-03T01:25:50.462Z,26.77
2022-12-03T01:28:53.666Z,30.00
2022-12-03T01:32:15.076Z,30.00
2022-12-03T01:35:18.012Z,30.77
2022-12-03T01:38:21.059Z,29.10
2022-12-03T01:41:26.008Z,30.03
2022-12-03T01:44:31.324Z,31.27
2022-12-03T01:47:37.795Z,30.70
2022-12-03T01:50:40.506Z,30.57
2022-12-03T01:53:44.753Z,28.07
2022-12-03T01:56:48.337Z,27.63
2022-12-03T01:59:53.020Z,29.73
2022-12-03T02:02:58.740Z,28.80
2022-12-03T02:06:01.471Z,31.43
2022-12-03T02:09:08.414Z,30.07
2022-12-03T02:12:11.433Z,32.30
2022-12-03T02:15:14.558Z,35.30
2022-12-03T02:18:19.526Z,31.43
2022-12-03T02:21:36.923Z,31.43
2022-12-03T02:24:47.978Z,30.80
2022-12-03T02:27:54.849Z,32.17
2022-12-03T02:30:57.668Z,37.67
2022-12-03T02:34:00.829Z,31.70
2022-12-03T02:37:05.204Z,37.27
2022-12-03T02:40:12.264Z,36.37
2022-12-03T02:43:19.042Z,29.70
2022-12-03T02:46:21.754Z,34.27
2022-12-03T02:49:24.533Z,37.93
2022-12-03T02:52:27.858Z,33.90
2022-12-03T02:55:36.754Z,36.00
2022-12-03T03:01:51.956Z,39.80
2022-12-03T03:04:55.257Z,35.83
2022-12-03T03:07:59.619Z,37.80
2022-12-03T03:11:03.227Z,37.30
2022-12-03T03:14:05.952Z,32.97
2022-12-03T03:17:09.918Z,41.47
2022-12-03T03:20:13.413Z,36.40
2022-12-03T03:23:17.993Z,33.05
2022-12-03T03:26:20.844Z,39.10
2022-12-03T03:29:23.681Z,34.87
2022-12-03T03:32:29.014Z,40.90
2022-12-03T03:35:31.986Z,35.00
2022-12-03T03:38:35.560Z,36.27
2022-12-03T03:41:39.296Z,40.87
2022-12-03T03:44:42.169Z,36.57
2022-12-03T03:47:46.436Z,32.80
2022-12-03T03:50:49.868Z,37.10
2022-12-03T03:53:53.013Z,36.47
2022-12-03T03:56:55.725Z,38.43
2022-12-03T03:59:59.343Z,34.47
2022-12-03T04:03:04.157Z,39.47
2022-12-03T04:06:07.465Z,35.30
2022-12-03T04:09:10.103Z,37.90
2022-12-03T04:12:30.897Z,39.50
2022-12-03T04:15:33.525Z,39.97
2022-12-03T04:18:46.427Z,42.27
2022-12-03T04:22:06.437Z,42.43
2022-12-03T04:25:28.687Z,41.63
2022-12-03T04:28:48.840Z,42.70
2022-12-03T04:32:09.173Z,40.23
2022-12-03T04:35:45.361Z,42.80
2022-12-03T04:38:48.021Z,41.90
2022-12-03T04:41:50.648Z,43.23
2022-12-03T04:44:53.526Z,41.77
2022-12-03T04:47:56.413Z,41.87
2022-12-03T04:51:00.490Z,44.57
2022-12-03T04:54:03.892Z,43.47
2022-12-03T04:57:08.130Z,44.83
2022-12-03T05:00:12.215Z,45.13
2022-12-03T05:03:14.856Z,45.50
2022-12-03T05:06:18.824Z,42.87
2022-12-03T05:09:21.796Z,47.53
2022-12-03T05:12:24.426Z,42.87
2022-12-03T05:15:27.068Z,45.60
2022-12-03T05:18:30.415Z,45.10
2022-12-03T05:21:34.678Z,42.33
2022-12-03T05:24:37.290Z,40.50
2022-12-03T05:27:39.971Z,46.17
2022-12-03T05:30:42.746Z,40.33
2022-12-03T05:33:45.398Z,40.13
2022-12-03T05:36:49.368Z,40.43
2022-12-03T05:39:52.223Z,42.30
2022-12-03T05:42:54.903Z,46.17
2022-12-03T05:45:57.599Z,44.37
2022-12-03T05:49:00.283Z,43.10
2022-12-03T05:52:04.633Z,43.93
2022-12-03T05:55:07.916Z,43.57
2022-12-03T05:58:11.630Z,43.73
2022-12-03T06:01:14.287Z,41.13
2022-12-03T06:04:16.895Z,45.57
2022-12-03T06:07:20.833Z,46.03
2022-12-03T06:10:25.122Z,43.73
2022-12-03T06:13:27.740Z,41.63
2022-12-03T06:16:30.469Z,41.80
2022-12-03T06:19:33.137Z,41.40
2022-12-03T06:22:37.092Z,37.10
2022-12-03T06:25:39.703Z,37.23
2022-12-03T06:28:46.182Z,38.53
2022-12-03T06:31:48.810Z,35.93
2022-12-03T06:34:51.782Z,40.40
2022-12-03T06:37:55.996Z,41.43
2022-12-03T06:40:58.608Z,44.73
2022-12-03T06:44:01.368Z,41.00
2022-12-03T06:47:04.134Z,39.87
2022-12-03T06:50:08.697Z,37.80
2022-12-03T06:53:12.671Z,35.40
2022-12-03T06:56:17.871Z,40.63
2022-12-03T06:59:24.050Z,37.67
2022-12-03T07:02:26.736Z,38.97
2022-12-03T07:05:29.403Z,36.27
2022-12-03T07:08:33.333Z,41.90
2022-12-03T07:11:40.654Z,40.90
2022-12-03T07:14:43.318Z,36.97
2022-12-03T07:17:45.949Z,39.13
2022-12-03T07:20:48.845Z,36.17
2022-12-03T07:23:52.856Z,42.37
2022-12-03T07:26:55.593Z,40.47
2022-12-03T07:29:58.246Z,42.50
2022-12-03T07:33:00.864Z,39.43
2022-12-03T07:36:03.472Z,39.30
2022-12-03T07:39:07.566Z,38.57
2022-12-03T07:42:10.284Z,39.23
2022-12-03T07:45:12.887Z,41.90
2022-12-03T07:48:15.597Z,37.83
2022-12-03T07:51:18.200Z,38.97
2022-12-03T07:54:22.415Z,40.33
2022-12-03T07:57:25.049Z,39.03
2022-12-03T08:00:28.211Z,42.37
2022-12-03T08:03:30.957Z,39.23
2022-12-03T08:06:33.611Z,40.13
2022-12-03T08:09:40.466Z,38.30
2022-12-03T08:12:43.075Z,35.10
2022-12-03T08:15:45.883Z,38.10
2022-12-03T08:18:49.628Z,41.37
2022-12-03T08:21:56.496Z,36.30
2022-12-03T08:25:03.670Z,32.97
2022-12-03T08:28:13.376Z,37.03
2022-12-03T08:31:19.904Z,41.47
2022-12-03T08:34:24.521Z,37.23
2022-12-03T08:37:27.169Z,42.17
2022-12-03T08:40:36.161Z,36.80
2022-12-03T08:43:41.988Z,41.03
2022-12-03T08:46:45.338Z,40.83
2022-12-03T08:49:54.859Z,43.03
2022-12-03T08:53:01.383Z,37.97
2022-12-03T08:56:13.549Z,41.57
2022-12-03T08:59:26.685Z,36.60
2022-12-03T09:02:34.130Z,37.93
2022-12-03T09:05:37.336Z,37.07
2022-12-03T09:08:39.945Z,36.43
2022-12-03T09:11:44.241Z,38.43
2022-12-03T09:14:47.012Z,39.53
2022-12-03T09:17:49.885Z,38.20
2022-12-03T09:20:52.507Z,35.80
2022-12-03T09:23:55.137Z,40.17
2022-12-03T09:26:59.107Z,35.23
2022-12-03T09:30:01.842Z,41.50
2022-12-03T09:33:04.561Z,37.57
2022-12-03T09:36:07.457Z,34.33
2022-12-03T09:39:10.114Z,38.53
2022-12-03T09:42:14.159Z,39.30
2022-12-03T09:45:17.542Z,40.70
2022-12-03T09:48:21.643Z,40.13
2022-12-03T09:51:25.785Z,36.63
2022-12-03T09:54:29.990Z,35.37
2022-12-03T09:57:34.009Z,41.53
2022-12-03T10:00:36.633Z,38.27
2022-12-03T10:03:42.970Z,34.77
2022-12-03T10:06:46.406Z,44.17
2022-12-03T10:09:49.245Z,40.47
2022-12-03T10:12:53.852Z,35.50
2022-12-03T10:15:58.486Z,36.23
2022-12-03T10:19:02.072Z,38.20
2022-12-03T10:22:04.750Z,40.73
2022-12-03T10:25:10.440Z,35.27
2022-12-03T10:28:14.439Z,38.20
2022-12-03T10:31:17.114Z,38.97
2022-12-03T10:34:25.898Z,32.27
2022-12-03T10:37:28.532Z,37.63
2022-12-03T10:40:33.021Z,32.10
2022-12-03T10:43:36.976Z,37.00
2022-12-03T10:46:39.724Z,40.17
2022-12-03T10:49:43.199Z,38.13
2022-12-03T10:52:47.004Z,38.37
2022-12-03T10:55:52.281Z,34.83
2022-12-03T10:58:56.470Z,36.83
2022-12-03T11:01:59.212Z,39.13
2022-12-03T11:05:01.918Z,32.50
2022-12-03T11:08:05.081Z,37.30
2022-12-03T11:11:16.846Z,30.03
2022-12-03T11:14:57.589Z,35.20
2022-12-03T11:18:01.741Z,37.53
2022-12-03T11:21:06.555Z,34.73
2022-12-03T11:24:26.794Z,32.27
2022-12-03T11:27:29.452Z,33.63
2022-12-03T11:31:02.126Z,35.87
2022-12-03T11:34:49.835Z,33.23
2022-12-03T11:37:54.244Z,36.63
2022-12-03T11:41:10.456Z,35.57
2022-12-03T11:44:32.037Z,34.60
2022-12-03T11:47:39.465Z,35.97
2022-12-03T11:50:43.826Z,31.37
2022-12-03T11:53:48.229Z,27.03
2022-12-03T11:56:52.816Z,30.63
2022-12-03T12:00:07.708Z,29.30
2022-12-03T12:03:24.239Z,26.50
2022-12-03T12:06:27.069Z,27.83
2022-12-03T12:09:50.521Z,27.97
2022-12-03T12:12:55.065Z,29.20
2022-12-03T12:15:58.221Z,27.80
2022-12-03T12:19:31.283Z,28.07
2022-12-03T12:22:33.913Z,29.17
2022-12-03T12:25:40.651Z,25.33
2022-12-03T12:28:43.263Z,27.77
2022-12-03T12:31:50.782Z,26.80
2022-12-03T12:35:01.226Z,29.33
2022-12-03T12:38:14.627Z,25.70
2022-12-03T12:41:18.628Z,29.60
2022-12-03T12:44:23.326Z,24.57
2022-12-03T12:47:26.208Z,24.07
2022-12-03T12:50:28.864Z,26.67
2022-12-03T12:53:33.262Z,26.10
2022-12-03T12:56:37.582Z,26.83
2022-12-03T12:59:40.522Z,25.63
2022-12-03T13:02:46.713Z,27.87
2022-12-03T13:05:50.868Z,31.97
2022-12-03T13:08:54.534Z,29.40
2022-12-03T13:12:00.444Z,25.20
2022-12-03T13:15:03.219Z,25.63
2022-12-03T13:18:20.855Z,28.17
2022-12-03T13:21:26.538Z,28.43
2022-12-03T13:24:35.108Z,33.97
2022-12-03T13:27:39.071Z,27.50
2022-12-03T13:30:41.739Z,31.57
2022-12-03T13:33:44.406Z,26.93
2022-12-03T13:36:53.571Z,33.60
2022-12-03T13:40:10.387Z,27.37
2022-12-03T13:43:16.808Z,31.50
2022-12-03T13:46:19.666Z,30.80
2022-12-03T13:49:24.898Z,30.47
2022-12-03T13:52:27.915Z,32.20
2022-12-03T13:55:32.159Z,32.53
2022-12-03T13:58:36.168Z,31.30
2022-12-03T14:01:38.844Z,33.37
2022-12-03T14:04:41.684Z,34.53
2022-12-03T14:07:44.377Z,34.77
2022-12-03T14:10:47.172Z,34.90
2022-12-03T14:13:51.146Z,34.17
2022-12-03T14:16:59.540Z,34.47
2022-12-03T14:20:03.748Z,33.70
2022-12-03T14:23:06.417Z,33.70
2022-12-03T14:26:09.069Z,26.27
2022-12-03T14:29:13.116Z,33.73
2022-12-03T14:32:15.796Z,37.63
2022-12-03T14:35:18.607Z,30.87
2022-12-03T14:38:21.262Z,32.97
2022-12-03T14:41:41.636Z,30.53
2022-12-03T14:44:47.255Z,31.07
2022-12-03T14:47:49.916Z,31.83
2022-12-03T14:50:52.520Z,34.17
2022-12-03T14:53:55.143Z,33.10
2022-12-03T14:56:57.864Z,33.10
2022-12-03T15:00:01.888Z,35.17
2022-12-03T15:03:04.656Z,31.40
2022-12-03T15:06:07.818Z,30.43
2022-12-03T15:09:11.063Z,31.37
2022-12-03T15:12:13.742Z,28.37
2022-12-03T15:15:17.823Z,33.33
2022-12-03T15:18:20.430Z,29.47
2022-12-03T15:21:23.045Z,27.33
2022-12-03T15:24:25.644Z,27.90
2022-12-03T15:27:28.296Z,28.20
2022-12-03T15:30:35.270Z,27.80
2022-12-03T15:33:37.873Z,32.23
2022-12-03T15:36:40.519Z,30.10
2022-12-03T15:39:48.386Z,27.60
2022-12-03T15:42:51.249Z,30.43
2022-12-03T15:45:55.519Z,30.43
2022-12-03T15:49:21.983Z,33.60
2022-12-03T15:52:24.630Z,30.93
2022-12-03T15:55:27.285Z,29.43
2022-12-03T15:58:29.949Z,30.03
2022-12-03T16:01:32.827Z,28.70
2022-12-03T16:04:37.010Z,31.30
2022-12-03T16:07:40.020Z,30.27
2022-12-03T16:10:42.813Z,29.17
2022-12-03T16:13:45.491Z,28.57
2022-12-03T16:16:48.163Z,34.63
2022-12-03T16:19:52.560Z,30.60
2022-12-03T16:22:56.223Z,29.33
2022-12-03T16:25:58.851Z,29.40
2022-12-03T16:29:01.604Z,30.83
2022-12-03T16:32:04.361Z,33.37
2022-12-03T16:35:09.057Z,29.07
2022-12-03T16:38:11.672Z,34.30
2022-12-03T16:41:14.299Z,34.07
2022-12-03T16:44:32.464Z,36.77
2022-12-03T16:47:35.342Z,35.60
2022-12-03T16:50:39.957Z,40.23
2022-12-03T16:53:42.748Z,38.23
2022-12-03T16:56:45.461Z,34.97
2022-12-03T16:59:48.174Z,39.97
2022-12-03T17:02:50.895Z,39.40
2022-12-03T17:05:54.893Z,52.33
2022-12-03T17:08:57.515Z,38.20
2022-12-03T17:12:00.142Z,58.83
2022-12-03T17:15:02.767Z,47.77
2022-12-03T17:18:05.672Z,52.93
2022-12-03T17:21:09.629Z,37.40
2022-12-03T17:24:12.267Z,36.00
2022-12-03T17:27:15.589Z,37.60
2022-12-03T17:30:18.737Z,40.17
2022-12-03T17:33:21.359Z,39.17
2022-12-03T17:36:25.697Z,47.90
2022-12-03T17:39:28.385Z,37.90
2022-12-03T17:42:31.043Z,43.60
2022-12-03T17:45:33.652Z,38.93
2022-12-03T17:48:36.659Z,45.37
2022-12-03T17:51:40.632Z,39.63
2022-12-03T17:55:09.232Z,41.70
2022-12-03T17:58:05.931Z,44.23
2022-12-03T18:01:10.368Z,46.77
2022-12-03T18:04:13.573Z,37.73
2022-12-03T18:07:17.597Z,41.77
2022-12-03T18:10:20.249Z,47.93
2022-12-03T18:13:22.914Z,45.50
2022-12-03T18:16:25.960Z,43.27
2022-12-03T18:19:28.610Z,46.20
2022-12-03T18:22:32.700Z,48.73
2022-12-03T18:25:35.379Z,41.03
2022-12-03T18:28:38.757Z,48.57
2022-12-03T18:31:41.356Z,43.77
2022-12-03T18:34:44.193Z,50.10
2022-12-03T18:37:50.317Z,42.07
2022-12-03T18:40:56.976Z,49.50
2022-12-03T18:43:59.597Z,48.90
2022-12-03T18:47:02.537Z,47.93
2022-12-03T18:50:06.396Z,47.40
2022-12-03T18:53:12.692Z,51.70
2022-12-03T18:56:15.802Z,52.27
2022-12-03T18:59:18.389Z,51.97
2022-12-03T19:05:44.794Z,44.67
2022-12-03T19:08:53.890Z,47.10
2022-12-03T19:11:56.514Z,49.77
2022-12-03T19:14:59.129Z,52.87
2022-12-03T19:18:01.735Z,49.47
2022-12-03T19:21:08.112Z,51.43
2022-12-03T19:24:27.534Z,54.00
2022-12-03T19:27:30.980Z,51.03
2022-12-03T19:30:33.648Z,51.97
2022-12-03T19:33:36.431Z,51.93
2022-12-03T19:36:39.047Z,54.53
2022-12-03T19:39:43.149Z,54.90
2022-12-03T19:42:45.746Z,53.40
2022-12-03T19:45:48.392Z,55.70
2022-12-03T19:48:51.329Z,52.57
2022-12-03T19:51:53.994Z,52.97
2022-12-03T19:54:57.957Z,52.43
2022-12-03T19:58:00.591Z,52.40
2022-12-03T20:01:07.788Z,49.90
2022-12-03T20:04:12.343Z,57.93
2022-12-03T20:07:14.977Z,54.53
2022-12-03T20:10:19.168Z,52.87
2022-12-03T20:13:21.771Z,47.30
2022-12-03T20:16:25.503Z,51.63
2022-12-03T20:19:28.190Z,51.97
2022-12-03T20:22:30.810Z,50.10
2022-12-03T20:25:37.617Z,49.40
2022-12-03T20:28:41.274Z,53.53
2022-12-03T20:31:43.939Z,51.57
2022-12-03T20:34:46.917Z,56.90
2022-12-03T20:37:49.546Z,59.13
2022-12-03T20:40:53.820Z,57.73
2022-12-03T20:43:56.601Z,63.93
2022-12-03T20:46:59.258Z,57.70
2022-12-03T20:50:01.897Z,65.60
2022-12-03T20:53:23.748Z,63.73
2022-12-03T20:56:31.404Z,57.67
2022-12-03T20:59:34.079Z,63.17
2022-12-03T21:02:38.330Z,59.00
2022-12-03T21:05:42.476Z,59.37
2022-12-03T21:08:45.860Z,62.47
2022-12-03T21:11:49.977Z,59.80
2022-12-03T21:14:52.604Z,60.10
2022-12-03T21:17:55.327Z,55.23
2022-12-03T21:21:00.720Z,61.23
2022-12-03T21:24:03.364Z,58.93
2022-12-03T21:27:07.343Z,58.17
2022-12-03T21:30:10.520Z,57.03
2022-12-03T21:33:13.161Z,55.40
2022-12-03T21:36:16.909Z,56.43
2022-12-03T21:39:19.847Z,61.23
2022-12-03T21:42:36.631Z,58.23
2022-12-03T21:45:40.783Z,53.63
2022-12-03T21:48:43.684Z,57.70
2022-12-03T21:51:46.688Z,59.80
2022-12-03T21:54:49.379Z,54.83
2022-12-03T21:57:53.463Z,58.87
2022-12-03T22:00:56.168Z,57.43
2022-12-03T22:03:58.872Z,54.73
2022-12-03T22:07:01.519Z,55.10
2022-12-03T22:10:04.323Z,58.80
2022-12-03T22:13:08.562Z,50.50
2022-12-03T22:16:13.250Z,55.20
2022-12-03T22:19:15.889Z,58.73
2022-12-03T22:22:18.804Z,58.47
2022-12-03T22:25:21.475Z,58.00
2022-12-03T22:28:25.486Z,58.40
2022-12-03T22:31:28.170Z,55.93
2022-12-03T22:34:30.914Z,53.13
2022-12-03T22:37:33.656Z,61.67
2022-12-03T22:40:36.302Z,63.37
2022-12-03T22:43:40.547Z,57.87
2022-12-03T22:46:43.342Z,57.60
2022-12-03T22:49:46.050Z,59.60
2022-12-03T22:52:48.644Z,59.37
2022-12-03T22:55:55.957Z,63.97
2022-12-03T22:59:00.112Z,55.57
2022-12-03T23:02:02.752Z,60.63
2022-12-03T23:05:06.756Z,54.17
2022-12-03T23:08:11.780Z,61.57
2022-12-03T23:11:14.791Z,57.07
2022-12-03T23:14:18.800Z,56.77
2022-12-03T23:17:21.466Z,53.33
2022-12-03T23:20:24.388Z,57.60
2022-12-03T23:23:28.969Z,59.67
2022-12-03T23:26:34.136Z,54.50
2022-12-03T23:29:38.096Z,56.90
2022-12-03T23:32:41.916Z,52.00
2022-12-03T23:35:44.643Z,54.27
2022-12-03T23:38:47.769Z,54.03
2022-12-03T23:41:50.924Z,55.00
2022-12-03T23:44:54.940Z,56.07
2022-12-03T23:47:58.466Z,54.43
2022-12-03T23:51:06.125Z,56.23
2022-12-03T23:54:08.767Z,48.63
2022-12-03T23:57:12.568Z,50.70
